Time;durP1;ratioP1;P1;durP2;ratioP2;P2;SDS_P1;SDS_P2;PMS_P1;PMS_P2;Temp;Humidity;BMP_temperature;BMP_pressure;BME280_temperature;BME280_humidity;BME280_pressure;Samples;Min_cycle;Max_cycle;Signal;HPM_P1;HPM_P2
2021/12/05 00:22:52;;;;;;;12.38;3.13;;;;;;;;;;4992690;28;20486;-64
2021/12/05 00:25:29;;;;;;;10.13;2.53;;;;;;;;;;4992259;28;20042;-65
2021/12/05 00:45:24;;;;;;;13.20;3.08;;;;;;;;;;4973158;28;20051;-65
2021/12/05 00:48:01;;;;;;;13.50;3.78;;;;;;;;;;4959228;28;20043;-65
2021/12/05 01:04:47;;;;;;;18.92;5.38;;;;;;;;;;4859054;29;20058;-65
2021/12/05 01:07:35;;;;;;;16.10;4.78;;;;;;;;;;4876813;29;20064;-66
2021/12/05 01:15:55;;;;;;;17.52;5.82;;;;;;;;;;4839793;29;20050;-64
2021/12/05 01:18:26;;;;;;;20.02;6.25;;;;;;;;;;4794618;29;20062;-66
2021/12/05 01:21:04;;;;;;;15.55;5.22;;;;;;;;;;4860238;29;20057;-65
2021/12/05 01:26:18;;;;;;;19.33;4.30;;;;;;;;;;4892960;29;20044;-66
2021/12/05 01:29:05;;;;;;;;;;;;;;;;;;4844265;29;20461;-66
2021/12/05 01:31:54;;;;;;;16.15;4.43;;;;;;;;;;4920014;29;19922;-65
2021/12/05 01:34:55;;;;;;;14.82;4.43;;;;;;;;;;4879884;29;20096;-65
2021/12/05 02:07:54;;;;;;;17.58;4.25;;;;;;;;;;4885914;29;20052;-65
2021/12/05 02:16:25;;;;;;;14.00;4.20;;;;;;;;;;4913643;29;20056;-65
2021/12/05 02:31:06;;;;;;;15.70;4.57;;;;;;;;;;4912283;29;20179;-65
2021/12/05 02:41:53;;;;;;;18.55;4.57;;;;;;;;;;4813448;29;20070;-65
2021/12/05 02:44:27;;;;;;;16.15;4.40;;;;;;;;;;4817235;29;20097;-65
2021/12/05 02:47:06;;;;;;;14.15;4.32;;;;;;;;;;4817216;29;20069;-65
2021/12/05 02:49:40;;;;;;;12.70;4.07;;;;;;;;;;4857554;29;20061;-65
2021/12/05 02:52:22;;;;;;;11.43;4.50;;;;;;;;;;4857445;29;20161;-65
2021/12/05 02:55:01;;;;;;;14.10;4.20;;;;;;;;;;4875778;29;20076;-65
2021/12/05 03:00:42;;;;;;;15.20;4.85;;;;;;;;;;4932093;29;20078;-65
2021/12/05 03:03:21;;;;;;;15.27;4.43;;;;;;;;;;4885511;29;20051;-65
2021/12/05 03:05:58;;;;;;;13.18;4.32;;;;;;;;;;4900984;29;20067;-65
2021/12/05 03:08:29;;;;;;;10.35;4.90;;;;;;;;;;4959588;28;20058;-65
2021/12/05 03:11:02;;;;;;;11.45;4.28;;;;;;;;;;5009531;28;20053;-65
2021/12/05 03:13:36;;;;;;;15.10;4.15;;;;;;;;;;4989780;28;20046;-64
2021/12/05 03:16:09;;;;;;;14.45;4.28;;;;;;;;;;4951224;29;20059;-64
2021/12/05 03:18:40;;;;;;;11.35;4.47;;;;;;;;;;4919620;29;20051;-66
2021/12/05 03:21:13;;;;;;;23.80;5.10;;;;;;;;;;4890719;29;20409;-65
2021/12/05 03:23:45;;;;;;;25.50;5.35;;;;;;;;;;4875647;29;20501;-65
2021/12/05 03:26:21;;;;;;;12.55;5.30;;;;;;;;;;4894125;29;20059;-65
2021/12/05 03:28:55;;;;;;;13.13;4.82;;;;;;;;;;4872172;29;20774;-65
2021/12/05 03:31:29;;;;;;;15.93;5.28;;;;;;;;;;4857188;29;20069;-65
2021/12/05 03:34:05;;;;;;;14.38;4.90;;;;;;;;;;4856702;29;20068;-65
2021/12/05 03:36:37;;;;;;;12.98;5.45;;;;;;;;;;4857371;29;20069;-65
2021/12/05 03:39:09;;;;;;;11.48;4.72;;;;;;;;;;4859380;29;20049;-65
2021/12/05 03:41:42;;;;;;;10.95;4.68;;;;;;;;;;4876338;29;20057;-65
2021/12/05 03:44:18;;;;;;;13.23;4.68;;;;;;;;;;4879013;29;20053;-66
2021/12/05 03:46:51;;;;;;;13.52;4.97;;;;;;;;;;4878832;29;20080;-65
2021/12/05 03:49:23;;;;;;;15.20;4.88;;;;;;;;;;4863892;29;20056;-65
2021/12/05 03:52:04;;;;;;;10.75;4.63;;;;;;;;;;4863490;29;20525;-65
2021/12/05 03:54:35;;;;;;;14.70;5.00;;;;;;;;;;4856847;29;20054;-65
2021/12/05 03:57:06;;;;;;;10.85;5.20;;;;;;;;;;4860331;29;20068;-65
2021/12/05 03:59:37;;;;;;;18.23;4.47;;;;;;;;;;4860483;29;20068;-65
2021/12/05 04:02:10;;;;;;;11.23;4.75;;;;;;;;;;4878569;29;20417;-65
2021/12/05 04:04:44;;;;;;;13.70;4.93;;;;;;;;;;4881619;29;20056;-65
2021/12/05 04:07:15;;;;;;;11.02;4.95;;;;;;;;;;4923842;29;20169;-65
2021/12/05 04:09:48;;;;;;;15.63;5.30;;;;;;;;;;4897069;29;20076;-66
2021/12/05 04:12:20;;;;;;;17.70;5.18;;;;;;;;;;4852463;29;20409;-65
2021/12/05 04:14:54;;;;;;;15.13;4.60;;;;;;;;;;4859710;29;20049;-65
2021/12/05 04:17:25;;;;;;;15.18;5.68;;;;;;;;;;4856253;29;20050;-65
2021/12/05 04:19:57;;;;;;;;;;;;;;;;;;4841622;29;20058;-65
2021/12/05 04:22:28;;;;;;;12.90;4.75;;;;;;;;;;4796035;29;19931;-65
2021/12/05 04:25:01;;;;;;;11.10;4.63;;;;;;;;;;4841004;29;20061;-65
2021/12/05 04:27:32;;;;;;;12.35;5.03;;;;;;;;;;4826557;29;20059;-64
2021/12/05 04:30:04;;;;;;;14.15;5.50;;;;;;;;;;4792258;29;20417;-65
2021/12/05 04:32:35;;;;;;;11.95;5.72;;;;;;;;;;4786693;30;20534;-66
2021/12/05 04:35:06;;;;;;;16.00;5.40;;;;;;;;;;4786876;30;20516;-65
2021/12/05 04:37:37;;;;;;;12.63;4.97;;;;;;;;;;4757086;30;20055;-65
2021/12/05 04:40:09;;;;;;;11.50;5.28;;;;;;;;;;4809355;29;20058;-65
2021/12/05 04:42:41;;;;;;;17.58;5.25;;;;;;;;;;4863575;29;20457;-65
2021/12/05 04:45:18;;;;;;;12.30;4.82;;;;;;;;;;4886104;29;20054;-65
2021/12/05 04:47:51;;;;;;;13.68;5.15;;;;;;;;;;4887424;29;20064;-65
2021/12/05 04:50:22;;;;;;;13.48;5.53;;;;;;;;;;4884263;29;20058;-65
2021/12/05 04:52:54;;;;;;;;;;;;;;;;;;4881347;29;20066;-65
2021/12/05 04:55:26;;;;;;;11.80;5.38;;;;;;;;;;4934430;29;19946;-66
2021/12/05 04:57:58;;;;;;;11.77;4.90;;;;;;;;;;4952963;29;20058;-65
2021/12/05 05:00:37;;;;;;;9.95;4.53;;;;;;;;;;4953245;29;20059;-65
2021/12/05 05:03:10;;;;;;;11.57;4.90;;;;;;;;;;4966936;28;20063;-65
2021/12/05 05:05:48;;;;;;;13.00;4.97;;;;;;;;;;4924630;28;20415;-65
2021/12/05 05:08:19;;;;;;;;;;;;;;;;;;4943903;28;20055;-66
2021/12/05 05:10:49;;;;;;;10.80;4.82;;;;;;;;;;4934020;29;19930;-65
2021/12/05 05:13:19;;;;;;;13.30;4.93;;;;;;;;;;4895761;29;20056;-65
2021/12/05 05:15:50;;;;;;;16.55;4.75;;;;;;;;;;4896034;29;20441;-65
2021/12/05 05:18:22;;;;;;;10.55;4.63;;;;;;;;;;4911324;29;20064;-65
2021/12/05 05:21:00;;;;;;;12.95;4.97;;;;;;;;;;4910044;29;20416;-65
2021/12/05 05:40:16;;;;;;;13.70;6.18;;;;;;;;;;4914228;29;20431;-65
2021/12/05 05:48:49;;;;;;;15.52;4.88;;;;;;;;;;4952575;29;20085;-65
2021/12/05 05:51:20;;;;;;;9.27;5.07;;;;;;;;;;4927666;29;20063;-65
2021/12/05 05:53:50;;;;;;;13.25;5.03;;;;;;;;;;4914520;29;20512;-65
2021/12/05 05:56:24;;;;;;;13.48;5.05;;;;;;;;;;4914338;29;20064;-65
2021/12/05 05:59:03;;;;;;;12.13;4.85;;;;;;;;;;4929722;29;20060;-65
2021/12/05 06:04:08;;;;;;;17.50;5.75;;;;;;;;;;4935662;28;20047;-65
2021/12/05 06:06:39;;;;;;;11.48;4.72;;;;;;;;;;4933016;29;20067;-65
2021/12/05 06:09:09;;;;;;;12.25;4.82;;;;;;;;;;4932894;29;20066;-66
2021/12/05 06:11:40;;;;;;;11.55;4.18;;;;;;;;;;4917185;29;20512;-65
2021/12/05 06:14:10;;;;;;;10.73;4.70;;;;;;;;;;4932920;29;20054;-65
2021/12/05 06:16:40;;;;;;;10.45;4.53;;;;;;;;;;4932635;29;20060;-65
2021/12/05 06:19:12;;;;;;;11.52;4.95;;;;;;;;;;4932789;29;20075;-65
2021/12/05 06:21:42;;;;;;;11.50;4.82;;;;;;;;;;4950848;28;20064;-65
2021/12/05 06:24:13;;;;;;;10.68;4.45;;;;;;;;;;4990381;28;20155;-65
2021/12/05 06:26:43;;;;;;;9.80;4.07;;;;;;;;;;4971069;28;20051;-65
2021/12/05 06:29:19;;;;;;;10.52;5.00;;;;;;;;;;4935556;29;20060;-65
2021/12/05 06:32:16;;;;;;;12.48;5.22;;;;;;;;;;4952110;29;20051;-64
2021/12/05 06:48:14;;;;;;;17.23;6.78;;;;;;;;;;4971329;28;20065;-65
2021/12/05 06:50:45;;;;;;;15.52;6.93;;;;;;;;;;4955311;28;20545;-65
2021/12/05 06:53:15;;;;;;;17.27;7.50;;;;;;;;;;4972758;28;20047;-65
2021/12/05 06:55:46;;;;;;;14.18;6.53;;;;;;;;;;4974394;28;20058;-65
2021/12/05 06:58:17;;;;;;;14.70;6.65;;;;;;;;;;4938823;28;20054;-65
2021/12/05 07:00:47;;;;;;;14.48;5.90;;;;;;;;;;4996361;28;20054;-65
2021/12/05 07:03:18;;;;;;;13.68;5.70;;;;;;;;;;4963231;28;20794;-65
2021/12/05 07:08:22;;;;;;;12.27;5.63;;;;;;;;;;5029641;28;20041;-65
2021/12/05 07:16:37;;;;;;;10.15;5.35;;;;;;;;;;4992196;28;20054;-65
2021/12/05 07:21:57;;;;;;;9.82;4.93;;;;;;;;;;4946066;28;20422;-65
2021/12/05 07:24:49;;;;;;;12.68;5.78;;;;;;;;;;4962947;28;20398;-65
2021/12/05 07:44:00;;;;;;;8.02;4.90;;;;;;;;;;4957910;28;20051;-65
2021/12/05 07:46:30;;;;;;;14.00;5.43;;;;;;;;;;4973930;28;20074;-64
2021/12/05 07:49:03;;;;;;;10.25;4.78;;;;;;;;;;4974178;28;20154;-65
2021/12/05 07:51:38;;;;;;;13.63;5.18;;;;;;;;;;4958244;28;20070;-65
2021/12/05 07:54:34;;;;;;;9.48;5.10;;;;;;;;;;4943866;28;20055;-65
2021/12/05 08:16:28;;;;;;;12.82;6.18;;;;;;;;;;4993293;28;20042;-65
2021/12/05 08:18:59;;;;;;;15.27;6.28;;;;;;;;;;4976691;28;20062;-65
2021/12/05 08:21:32;;;;;;;13.00;6.35;;;;;;;;;;4960720;28;20544;-65
2021/12/05 08:24:02;;;;;;;17.65;6.35;;;;;;;;;;4962963;28;20051;-65
2021/12/05 08:26:34;;;;;;;14.45;6.47;;;;;;;;;;4958033;28;20046;-65
2021/12/05 08:29:14;;;;;;;15.52;6.72;;;;;;;;;;4992201;28;20042;-66
2021/12/05 08:34:58;;;;;;;;;;;;;;;;;;;;;
2021/12/05 08:37:46;;;;;;;14.52;7.05;;;;;;;;;;4927813;29;20059;-64
2021/12/05 10:11:57;;;;;;;20.42;10.63;;;;;;;;;;4971679;28;20418;-65
2021/12/05 10:20:17;;;;;;;24.45;10.90;;;;;;;;;;4988296;28;20122;-66
2021/12/05 10:37:27;;;;;;;20.50;9.35;;;;;;;;;;4845031;29;20080;-66
2021/12/05 10:40:09;;;;;;;17.17;8.02;;;;;;;;;;4869724;29;20057;-66
2021/12/05 10:42:44;;;;;;;22.85;9.80;;;;;;;;;;4888079;29;20127;-66
2021/12/05 10:45:20;;;;;;;18.70;7.53;;;;;;;;;;4885619;29;20068;-65
2021/12/05 10:47:53;;;;;;;18.73;7.57;;;;;;;;;;4889668;29;20052;-65
2021/12/05 10:50:38;;;;;;;14.35;6.32;;;;;;;;;;4894652;29;20052;-64
2021/12/05 10:53:18;;;;;;;15.65;5.15;;;;;;;;;;4894766;29;20057;-65
2021/12/05 10:56:06;;;;;;;13.05;5.13;;;;;;;;;;4931223;29;20154;-65
2021/12/05 10:58:53;;;;;;;7.63;4.95;;;;;;;;;;4913480;29;20432;-65
2021/12/05 11:01:30;;;;;;;11.02;3.72;;;;;;;;;;4912441;29;20048;-65
2021/12/05 11:04:05;;;;;;;11.82;4.82;;;;;;;;;;4929076;29;20435;-65
2021/12/05 11:06:38;;;;;;;8.55;3.72;;;;;;;;;;4958180;28;20055;-65
2021/12/05 11:09:14;;;;;;;8.10;3.47;;;;;;;;;;4937774;29;20052;-65
2021/12/05 11:11:49;;;;;;;6.68;3.25;;;;;;;;;;4943136;29;20055;-66
2021/12/05 11:14:25;;;;;;;10.63;4.13;;;;;;;;;;4928132;28;20071;-66
2021/12/05 11:16:59;;;;;;;8.77;3.60;;;;;;;;;;4959925;28;20065;-65
2021/12/05 11:19:33;;;;;;;12.43;3.83;;;;;;;;;;4962492;28;20055;-65
2021/12/05 11:22:10;;;;;;;8.63;3.95;;;;;;;;;;4945828;28;20058;-66
2021/12/05 11:24:47;;;;;;;11.55;3.95;;;;;;;;;;4939242;28;20055;-66
2021/12/05 11:27:19;;;;;;;11.02;3.30;;;;;;;;;;4896774;28;20059;-64
2021/12/05 11:30:05;;;;;;;6.78;3.22;;;;;;;;;;4929221;28;20054;-66
2021/12/05 11:32:40;;;;;;;5.45;3.25;;;;;;;;;;4959789;28;20059;-65
2021/12/05 11:35:16;;;;;;;5.50;3.10;;;;;;;;;;4921209;28;20070;-65
2021/12/05 11:38:03;;;;;;;8.25;3.00;;;;;;;;;;4979238;28;20049;-66
2021/12/05 11:40:55;;;;;;;9.70;3.40;;;;;;;;;;5000258;28;20423;-66
2021/12/05 11:43:35;;;;;;;5.50;2.65;;;;;;;;;;5017711;28;20050;-65
2021/12/05 11:46:16;;;;;;;12.20;3.22;;;;;;;;;;5022514;28;20057;-67
2021/12/05 11:48:55;;;;;;;7.75;2.58;;;;;;;;;;5046440;28;20053;-67
2021/12/05 11:51:33;;;;;;;5.70;2.90;;;;;;;;;;5016078;28;20060;-66
2021/12/05 11:54:08;;;;;;;7.07;2.75;;;;;;;;;;5008968;28;20532;-66
2021/12/05 11:56:44;;;;;;;17.00;2.75;;;;;;;;;;5009553;28;20464;-66
2021/12/05 11:59:20;;;;;;;8.68;2.60;;;;;;;;;;4976828;28;20064;-68
2021/12/05 12:02:16;;;;;;;6.53;2.72;;;;;;;;;;4977135;28;20050;-66
2021/12/05 12:04:53;;;;;;;6.07;2.80;;;;;;;;;;4935533;29;20071;-66
2021/12/05 12:07:27;;;;;;;6.85;3.22;;;;;;;;;;4915946;29;20059;-66
2021/12/05 12:10:15;;;;;;;8.30;3.40;;;;;;;;;;4885012;29;20048;-65
2021/12/05 12:12:53;;;;;;;9.25;3.17;;;;;;;;;;4915595;29;20060;-65
2021/12/05 12:15:26;;;;;;;9.00;3.35;;;;;;;;;;4895750;29;20052;-66
2021/12/05 12:18:07;;;;;;;31.40;18.67;;;;;;;;;;4896782;29;20071;-67
2021/12/05 12:20:39;;;;;;;11.68;2.90;;;;;;;;;;4881544;29;20512;-65
2021/12/05 12:23:10;;;;;;;10.82;3.50;;;;;;;;;;4865611;29;20056;-68
2021/12/05 12:25:41;;;;;;;8.90;2.65;;;;;;;;;;4896832;29;20456;-66
2021/12/05 12:28:12;;;;;;;8.05;2.63;;;;;;;;;;4896439;29;20056;-66
2021/12/05 12:30:52;;;;;;;7.18;2.50;;;;;;;;;;4897193;29;20441;-67
2021/12/05 12:33:29;;;;;;;6.15;2.40;;;;;;;;;;4881406;29;20079;-67
2021/12/05 12:36:01;;;;;;;9.50;2.90;;;;;;;;;;4897058;29;20065;-67
2021/12/05 12:38:32;;;;;;;5.78;2.50;;;;;;;;;;4933708;29;20063;-68
2021/12/05 12:41:12;;;;;;;10.60;4.55;;;;;;;;;;4965866;28;20065;-66
2021/12/05 12:43:48;;;;;;;5.75;2.55;;;;;;;;;;4999131;28;20053;-69
2021/12/05 12:46:31;;;;;;;12.52;2.85;;;;;;;;;;5071704;28;20543;-67
2021/12/05 12:49:17;;;;;;;5.40;2.08;;;;;;;;;;5071840;28;20407;-66
2021/12/05 12:51:49;;;;;;;4.97;2.50;;;;;;;;;;5071745;28;20447;-65
2021/12/05 12:54:28;;;;;;;8.90;2.63;;;;;;;;;;5058772;28;20052;-66
2021/12/05 12:57:09;;;;;;;6.93;3.35;;;;;;;;;;5094378;28;20411;-66
2021/12/05 12:59:57;;;;;;;9.35;2.53;;;;;;;;;;5059244;28;20052;-65
2021/12/05 13:02:56;;;;;;;5.55;3.35;;;;;;;;;;5093951;28;20571;-65
2021/12/05 13:11:55;;;;;;;7.75;2.45;;;;;;;;;;5011742;28;20077;-65
2021/12/05 13:14:26;;;;;;;9.07;2.03;;;;;;;;;;4978734;28;20069;-64
2021/12/05 13:16:56;;;;;;;6.55;2.67;;;;;;;;;;5011651;28;20049;-63
2021/12/05 13:19:27;;;;;;;9.40;4.25;;;;;;;;;;5011469;28;20069;-64
2021/12/05 13:22:06;;;;;;;10.32;3.20;;;;;;;;;;4978962;28;20414;-64
2021/12/05 13:24:44;;;;;;;9.43;2.85;;;;;;;;;;4994786;28;20493;-64
2021/12/05 13:27:31;;;;;;;5.00;2.15;;;;;;;;;;5011406;28;20057;-63
2021/12/05 13:30:03;;;;;;;10.90;2.53;;;;;;;;;;4978621;28;20061;-64
2021/12/05 13:32:34;;;;;;;5.60;2.35;;;;;;;;;;5011383;28;20058;-66
2021/12/05 13:35:10;;;;;;;6.53;2.20;;;;;;;;;;4978661;28;20572;-66
2021/12/05 13:37:50;;;;;;;5.38;2.42;;;;;;;;;;5011366;28;20046;-65
2021/12/05 13:40:22;;;;;;;9.95;4.72;;;;;;;;;;4994860;28;20074;-67
2021/12/05 13:43:05;;;;;;;7.20;2.22;;;;;;;;;;4962557;28;20046;-66
2021/12/05 13:45:43;;;;;;;6.18;1.92;;;;;;;;;;5029378;28;20048;-66
2021/12/05 13:48:28;;;;;;;4.32;1.77;;;;;;;;;;5017475;28;20064;-65
2021/12/05 13:50:59;;;;;;;;;;;;;;;;;;5051163;28;20072;-68
2021/12/05 13:54:01;;;;;;;5.68;2.35;;;;;;;;;;5034364;28;20303;-66
2021/12/05 13:56:31;;;;;;;5.35;1.75;;;;;;;;;;4970619;28;20051;-66
2021/12/05 13:59:06;;;;;;;10.15;4.32;;;;;;;;;;4972058;28;20573;-65
2021/12/05 14:01:47;;;;;;;6.50;3.42;;;;;;;;;;4971738;28;20070;-64
2021/12/05 14:04:21;;;;;;;6.70;2.28;;;;;;;;;;4971748;28;20055;-66
2021/12/05 14:06:58;;;;;;;4.65;1.90;;;;;;;;;;4955566;28;20055;-69
2021/12/05 14:09:46;;;;;;;6.57;2.78;;;;;;;;;;4941220;28;20054;-65
2021/12/05 14:12:30;;;;;;;6.15;1.90;;;;;;;;;;4955419;28;20058;-68
2021/12/05 14:15:08;;;;;;;10.60;4.60;;;;;;;;;;4971647;28;20045;-67
2021/12/05 14:17:42;;;;;;;5.88;2.53;;;;;;;;;;4971388;28;20152;-66
2021/12/05 14:20:19;;;;;;;5.82;1.60;;;;;;;;;;4971424;28;20070;-67
2021/12/05 14:22:50;;;;;;;10.20;4.13;;;;;;;;;;4964510;28;20055;-67
2021/12/05 14:25:24;;;;;;;7.20;2.92;;;;;;;;;;4990256;28;20066;-64
2021/12/05 14:28:01;;;;;;;5.32;1.83;;;;;;;;;;4943837;28;20054;-68
2021/12/05 14:30:34;;;;;;;8.18;2.05;;;;;;;;;;4990905;28;20042;-66
2021/12/05 14:33:06;;;;;;;6.72;2.00;;;;;;;;;;4980646;28;20057;-67
2021/12/05 14:35:40;;;;;;;8.02;3.20;;;;;;;;;;5017542;28;20064;-68
2021/12/05 14:38:11;;;;;;;6.03;1.90;;;;;;;;;;5049832;28;20049;-68
2021/12/05 14:40:41;;;;;;;6.57;1.80;;;;;;;;;;5049569;28;20575;-66
2021/12/05 14:43:13;;;;;;;4.25;2.00;;;;;;;;;;5010045;28;20058;-65
2021/12/05 14:45:44;;;;;;;9.07;2.42;;;;;;;;;;4993940;28;20057;-65
2021/12/05 14:48:17;;;;;;;5.35;2.13;;;;;;;;;;5010229;28;20057;-67
2021/12/05 14:50:53;;;;;;;7.75;2.47;;;;;;;;;;5010359;28;20046;-67
2021/12/05 14:53:24;;;;;;;5.07;2.45;;;;;;;;;;4994145;28;20061;-66
2021/12/05 14:55:58;;;;;;;8.95;2.80;;;;;;;;;;4993966;28;20054;-67
2021/12/05 14:58:30;;;;;;;5.85;1.77;;;;;;;;;;4994279;28;20045;-67
2021/12/05 15:01:01;;;;;;;5.07;1.80;;;;;;;;;;4991561;28;20058;-68
2021/12/05 15:03:33;;;;;;;4.43;2.00;;;;;;;;;;4977214;28;20053;-69
2021/12/05 15:06:07;;;;;;;5.57;2.03;;;;;;;;;;5009981;28;20526;-69
2021/12/05 15:08:38;;;;;;;5.20;2.60;;;;;;;;;;4977333;28;20513;-64
2021/12/05 15:11:09;;;;;;;9.25;2.97;;;;;;;;;;5010119;28;20422;-68
2021/12/05 15:13:39;;;;;;;5.55;2.53;;;;;;;;;;4970897;28;20059;-67
2021/12/05 15:16:10;;;;;;;3.75;1.70;;;;;;;;;;4970912;28;20058;-64
2021/12/05 15:18:41;;;;;;;6.43;2.20;;;;;;;;;;4970878;28;20057;-64
2021/12/05 15:21:11;;;;;;;5.60;1.90;;;;;;;;;;4997331;28;20066;-67
2021/12/05 15:23:45;;;;;;;4.90;1.50;;;;;;;;;;4990053;28;20066;-66
2021/12/05 15:26:16;;;;;;;7.78;2.35;;;;;;;;;;4970273;28;20055;-69
2021/12/05 15:28:47;;;;;;;7.75;1.92;;;;;;;;;;4970939;28;20058;-65
2021/12/05 15:31:40;;;;;;;6.90;2.22;;;;;;;;;;4970736;28;20054;-66
2021/12/05 15:34:35;;;;;;;7.80;2.13;;;;;;;;;;4970742;28;20063;-64
2021/12/05 15:37:13;;;;;;;4.68;1.52;;;;;;;;;;4951144;28;20051;-67
2021/12/05 15:39:47;;;;;;;7.57;2.67;;;;;;;;;;4954723;29;20052;-68
2021/12/05 15:42:20;;;;;;;4.38;1.50;;;;;;;;;;4994990;28;20058;-66
2021/12/05 15:44:53;;;;;;;3.70;1.50;;;;;;;;;;5013142;28;20061;-65
2021/12/05 15:47:27;;;;;;;3.53;1.90;;;;;;;;;;5013406;28;20469;-70
2021/12/05 15:50:07;;;;;;;2.85;1.65;;;;;;;;;;5013117;28;20058;-65
2021/12/05 15:52:50;;;;;;;6.97;2.40;;;;;;;;;;4993359;28;20050;-69
2021/12/05 15:55:32;;;;;;;6.40;2.53;;;;;;;;;;4977569;28;20069;-67
2021/12/05 15:58:30;;;;;;;2.85;1.40;;;;;;;;;;4961115;28;20512;-67
2021/12/05 16:01:07;;;;;;;4.00;2.03;;;;;;;;;;4993460;28;20062;-65
2021/12/05 16:03:46;;;;;;;5.28;2.20;;;;;;;;;;4972765;28;20058;-65
2021/12/05 16:06:18;;;;;;;5.22;2.50;;;;;;;;;;5032699;28;20481;-68
2021/12/05 16:08:50;;;;;;;4.18;2.00;;;;;;;;;;4941687;28;20437;-65
2021/12/05 16:11:22;;;;;;;9.15;2.65;;;;;;;;;;4973827;28;20051;-66
2021/12/05 16:13:55;;;;;;;4.82;2.47;;;;;;;;;;4976472;28;20081;-64
2021/12/05 16:16:31;;;;;;;4.63;2.22;;;;;;;;;;4993067;28;20054;-68
2021/12/05 16:19:04;;;;;;;7.07;2.10;;;;;;;;;;4993428;28;20050;-64
2021/12/05 16:21:36;;;;;;;3.28;1.30;;;;;;;;;;4993187;28;20409;-64
2021/12/05 16:24:17;;;;;;;4.55;1.50;;;;;;;;;;4944645;28;20061;-65
2021/12/05 16:26:49;;;;;;;6.93;2.30;;;;;;;;;;4935108;29;20064;-67
2021/12/05 16:29:25;;;;;;;6.07;2.08;;;;;;;;;;4918795;29;20516;-65
2021/12/05 16:31:57;;;;;;;5.25;1.75;;;;;;;;;;4954107;29;20066;-68
2021/12/05 16:34:31;;;;;;;5.70;1.92;;;;;;;;;;4954197;29;20064;-65
2021/12/05 16:37:05;;;;;;;11.77;2.05;;;;;;;;;;4954101;29;20047;-64
2021/12/05 16:39:42;;;;;;;5.82;1.60;;;;;;;;;;4954427;29;20060;-66
2021/12/05 16:42:14;;;;;;;20.60;2.20;;;;;;;;;;4922015;29;20066;-64
2021/12/05 16:44:58;;;;;;;6.43;1.90;;;;;;;;;;4922201;29;20063;-67
2021/12/05 16:47:31;;;;;;;5.22;1.52;;;;;;;;;;5010159;28;20058;-67
2021/12/05 16:50:05;;;;;;;3.75;1.83;;;;;;;;;;4995233;28;20418;-66
2021/12/05 16:52:42;;;;;;;4.20;1.65;;;;;;;;;;5012157;28;20053;-65
2021/12/05 16:55:24;;;;;;;5.50;1.60;;;;;;;;;;5012244;28;20042;-68
2021/12/05 16:58:15;;;;;;;5.57;1.85;;;;;;;;;;5012057;28;20434;-67
2021/12/05 17:00:52;;;;;;;7.63;1.58;;;;;;;;;;5011687;28;20058;-66
2021/12/05 17:03:28;;;;;;;2.78;1.30;;;;;;;;;;5016007;28;20060;-68
2021/12/05 17:06:09;;;;;;;7.82;1.58;;;;;;;;;;5055773;28;20080;-64
2021/12/05 17:08:45;;;;;;;8.15;1.50;;;;;;;;;;5051303;28;20053;-67
2021/12/05 17:11:22;;;;;;;4.90;1.50;;;;;;;;;;5035277;28;20520;-67
2021/12/05 17:13:55;;;;;;;3.50;1.60;;;;;;;;;;5051290;28;20075;-66
2021/12/05 17:16:28;;;;;;;6.88;1.33;;;;;;;;;;5034987;28;20600;-68
2021/12/05 17:19:06;;;;;;;3.92;1.38;;;;;;;;;;5034779;28;20071;-64
2021/12/05 17:21:41;;;;;;;2.38;1.45;;;;;;;;;;5051146;28;20074;-64
2021/12/05 17:24:16;;;;;;;4.22;1.35;;;;;;;;;;5050404;28;20041;-68
2021/12/05 17:27:03;;;;;;;7.18;1.90;;;;;;;;;;5050332;28;20393;-63
2021/12/05 17:29:44;;;;;;;2.88;1.35;;;;;;;;;;5047968;28;20041;-64
2021/12/05 17:32:20;;;;;;;3.72;1.50;;;;;;;;;;5049211;28;20045;-65
2021/12/05 17:34:57;;;;;;;5.15;1.60;;;;;;;;;;5029887;28;20045;-65
2021/12/05 17:37:30;;;;;;;4.40;1.48;;;;;;;;;;4961581;28;20050;-67
2021/12/05 17:40:04;;;;;;;4.35;1.95;;;;;;;;;;5009255;28;20476;-67
2021/12/05 17:42:34;;;;;;;4.63;1.33;;;;;;;;;;5010188;28;20062;-68
2021/12/05 17:45:09;;;;;;;3.08;1.40;;;;;;;;;;5008718;28;20405;-68
2021/12/05 17:47:44;;;;;;;4.88;1.50;;;;;;;;;;5000994;28;20057;-67
2021/12/05 17:50:22;;;;;;;3.75;1.58;;;;;;;;;;5010935;28;20054;-67
2021/12/05 17:52:57;;;;;;;4.03;1.50;;;;;;;;;;5010921;28;20433;-66
2021/12/05 17:55:32;;;;;;;7.20;1.50;;;;;;;;;;4978328;28;20066;-66
2021/12/05 17:58:19;;;;;;;3.22;1.50;;;;;;;;;;5010878;28;20179;-67
2021/12/05 18:02:41;;;;;;;4.05;1.13;;;;;;;;;;5009957;28;20425;-70
2021/12/05 18:03:52;;;;;;;5.20;1.40;;;;;;;;;;5010761;28;20057;-65
2021/12/05 18:06:26;;;;;;;8.30;1.40;;;;;;;;;;4994990;28;20054;-67
2021/12/05 18:08:56;;;;;;;6.32;1.42;;;;;;;;;;5010742;28;20058;-67
2021/12/05 18:11:27;;;;;;;5.97;1.33;;;;;;;;;;4963694;28;20054;-64
2021/12/05 18:13:59;;;;;;;4.90;1.23;;;;;;;;;;5015894;28;20053;-67
2021/12/05 18:16:31;;;;;;;3.83;1.23;;;;;;;;;;5055085;28;20067;-67
2021/12/05 18:19:05;;;;;;;3.65;1.85;;;;;;;;;;5079588;28;20387;-67
2021/12/05 18:21:37;;;;;;;6.68;1.35;;;;;;;;;;5047360;28;20060;-64
2021/12/05 18:24:15;;;;;;;5.45;1.60;;;;;;;;;;5050175;28;20064;-66
2021/12/05 18:26:47;;;;;;;4.70;1.67;;;;;;;;;;5050144;28;20062;-66
2021/12/05 18:29:19;;;;;;;2.97;1.20;;;;;;;;;;5049978;28;20088;-70
2021/12/05 18:31:51;;;;;;;4.20;1.30;;;;;;;;;;5049868;28;20057;-69
2021/12/05 18:34:27;;;;;;;5.60;1.35;;;;;;;;;;5049876;28;20056;-69
2021/12/05 18:37:00;;;;;;;4.10;1.40;;;;;;;;;;4990305;28;20505;-69
2021/12/05 18:39:37;;;;;;;3.75;1.30;;;;;;;;;;4974153;28;20057;-70
2021/12/05 18:42:11;;;;;;;5.72;1.38;;;;;;;;;;4976760;28;20424;-67
2021/12/05 18:44:47;;;;;;;3.67;1.33;;;;;;;;;;5010099;28;20045;-70
2021/12/05 18:47:18;;;;;;;1.73;1.20;;;;;;;;;;4979684;28;20050;-69
2021/12/05 18:49:48;;;;;;;2.75;1.50;;;;;;;;;;5009978;28;20062;-68
2021/12/05 18:52:19;;;;;;;6.57;1.70;;;;;;;;;;5010074;28;20050;-66
2021/12/05 18:54:50;;;;;;;5.88;1.40;;;;;;;;;;5009709;28;20062;-67
2021/12/05 18:57:24;;;;;;;4.03;1.38;;;;;;;;;;4978579;28;20058;-66
2021/12/05 19:00:02;;;;;;;3.97;1.40;;;;;;;;;;4992450;28;20049;-65
2021/12/05 19:13:33;;;;;;;4.05;1.40;;;;;;;;;;4987965;28;20495;-70
2021/12/05 19:16:04;;;;;;;3.60;1.58;;;;;;;;;;4959508;28;20042;-69
2021/12/05 19:18:35;;;;;;;6.80;1.60;;;;;;;;;;4998375;28;20047;-68
2021/12/05 19:21:06;;;;;;;5.68;1.50;;;;;;;;;;4960024;28;20063;-69
2021/12/05 19:23:37;;;;;;;7.15;1.52;;;;;;;;;;4974615;28;20055;-68
2021/12/05 19:26:08;;;;;;;7.40;1.80;;;;;;;;;;5000292;28;20049;-68
2021/12/05 19:28:39;;;;;;;2.50;1.40;;;;;;;;;;4980538;28;20053;-69
2021/12/05 19:31:09;;;;;;;5.97;1.33;;;;;;;;;;5013644;28;20054;-67
2021/12/05 19:33:41;;;;;;;7.38;1.65;;;;;;;;;;5029225;28;20524;-70
2021/12/05 19:36:15;;;;;;;3.17;1.65;;;;;;;;;;5013654;28;20064;-69
2021/12/05 19:38:46;;;;;;;4.45;1.45;;;;;;;;;;5006168;28;20483;-67
2021/12/05 19:41:16;;;;;;;3.33;1.58;;;;;;;;;;5016381;28;20076;-66
2021/12/05 19:43:47;;;;;;;6.75;1.42;;;;;;;;;;4984286;28;20547;-68
2021/12/05 19:46:21;;;;;;;6.00;1.88;;;;;;;;;;5016148;28;20053;-71
2021/12/05 19:48:52;;;;;;;7.35;1.90;;;;;;;;;;4992951;28;20421;-67
2021/12/05 19:51:23;;;;;;;5.65;1.58;;;;;;;;;;4993483;28;20058;-70
2021/12/05 19:53:55;;;;;;;3.03;1.42;;;;;;;;;;5011563;28;20041;-71
2021/12/05 19:56:28;;;;;;;3.63;1.30;;;;;;;;;;5027511;28;20049;-70
2021/12/05 19:58:58;;;;;;;7.43;1.92;;;;;;;;;;5030314;28;20052;-71
2021/12/05 20:01:28;;;;;;;3.17;1.63;;;;;;;;;;4999074;28;20053;-69
2021/12/05 20:04:00;;;;;;;7.78;1.20;;;;;;;;;;5032043;28;20064;-66
2021/12/05 20:06:33;;;;;;;4.75;1.58;;;;;;;;;;5012716;28;20053;-70
2021/12/05 20:09:07;;;;;;;2.95;1.30;;;;;;;;;;4984728;28;20053;-70
2021/12/05 20:11:40;;;;;;;3.53;1.33;;;;;;;;;;4937581;29;20046;-69
2021/12/05 20:14:11;;;;;;;5.43;1.67;;;;;;;;;;4922666;29;20043;-69
2021/12/05 20:16:42;;;;;;;5.22;1.63;;;;;;;;;;4953533;29;20059;-70
2021/12/05 20:19:13;;;;;;;2.90;1.58;;;;;;;;;;4953481;29;20048;-69
2021/12/05 20:21:46;;;;;;;5.18;1.30;;;;;;;;;;4922011;29;20059;-67
2021/12/05 20:24:20;;;;;;;6.28;1.55;;;;;;;;;;4952415;28;20066;-68
2021/12/05 20:26:51;;;;;;;6.80;1.63;;;;;;;;;;4964796;28;20061;-68
2021/12/05 20:29:22;;;;;;;5.35;1.50;;;;;;;;;;4972706;28;20062;-69
2021/12/05 20:31:52;;;;;;;8.07;1.77;;;;;;;;;;4992262;28;20062;-69
2021/12/05 20:34:24;;;;;;;3.60;1.30;;;;;;;;;;4992751;28;20603;-64
2021/12/05 20:36:55;;;;;;;5.82;1.40;;;;;;;;;;4983889;28;20070;-67
2021/12/05 20:39:25;;;;;;;9.25;1.60;;;;;;;;;;4957022;28;20059;-66
2021/12/05 20:41:56;;;;;;;5.47;1.42;;;;;;;;;;4972862;28;20114;-69
2021/12/05 20:44:29;;;;;;;6.20;1.42;;;;;;;;;;4972830;28;20065;-69
2021/12/05 20:46:59;;;;;;;3.80;1.30;;;;;;;;;;4984747;28;20421;-69
2021/12/05 20:49:29;;;;;;;14.93;8.88;;;;;;;;;;5003129;28;20057;-67
2021/12/05 20:52:00;;;;;;;8.75;1.50;;;;;;;;;;4979211;28;20050;-66
2021/12/05 20:54:35;;;;;;;4.53;1.33;;;;;;;;;;5011898;28;20046;-65
2021/12/05 20:57:10;;;;;;;3.67;1.27;;;;;;;;;;4991962;28;20603;-70
2021/12/05 20:59:41;;;;;;;4.57;1.60;;;;;;;;;;4988707;28;20049;-65
2021/12/05 21:02:11;;;;;;;5.43;1.48;;;;;;;;;;5011695;28;20057;-67
2021/12/05 21:04:42;;;;;;;7.57;1.65;;;;;;;;;;5011424;28;20053;-68
2021/12/05 21:07:15;;;;;;;6.18;1.70;;;;;;;;;;5011272;28;20178;-66